createdAt,value
2022-11-01T00:01:38.037Z,24.95
2022-11-01T00:04:30.645Z,24.40
2022-11-01T00:06:57.593Z,16.58
2022-11-01T00:09:24.465Z,21.70
2022-11-01T00:11:51.544Z,24.45
2022-11-01T00:17:11.448Z,26.67
2022-11-01T00:19:38.364Z,25.98
2022-11-01T00:24:59.425Z,29.67
2022-11-01T00:27:33.758Z,25.58
2022-11-01T00:30:01.614Z,24.38
2022-11-01T00:32:28.466Z,24.02
2022-11-01T00:37:49.696Z,28.77
2022-11-01T00:40:17.394Z,23.63
2022-11-01T00:42:45.508Z,24.83
2022-11-01T00:45:13.934Z,25.70
2022-11-01T00:47:41.772Z,37.58
2022-11-01T00:50:08.924Z,33.30
2022-11-01T00:52:35.784Z,30.08
2022-11-01T00:55:02.672Z,24.63
2022-11-01T00:57:29.674Z,21.85
2022-11-01T00:59:58.951Z,24.05
2022-11-01T01:02:27.528Z,27.80
2022-11-01T01:04:54.798Z,27.17
2022-11-01T01:07:22.003Z,23.20
2022-11-01T01:09:48.697Z,26.23
2022-11-01T01:12:15.494Z,22.55
2022-11-01T01:14:42.722Z,22.45
2022-11-01T01:17:09.518Z,23.88
2022-11-01T01:19:36.278Z,23.45
2022-11-01T01:24:54.497Z,26.00
2022-11-01T01:27:21.232Z,29.60
2022-11-01T01:29:48.132Z,26.00
2022-11-01T01:32:22.951Z,25.52
2022-11-01T01:34:56.812Z,25.02
2022-11-01T01:37:23.559Z,21.63
2022-11-01T01:39:50.496Z,23.38
2022-11-01T01:42:26.862Z,26.02
2022-11-01T01:44:56.613Z,24.88
2022-11-01T01:47:26.491Z,22.83
2022-11-01T01:50:03.951Z,20.42
2022-11-01T01:52:33.645Z,25.65
2022-11-01T01:55:05.847Z,22.45
2022-11-01T01:57:33.304Z,23.55
2022-11-01T02:00:00.180Z,23.13
2022-11-01T02:02:33.291Z,28.75
2022-11-01T02:05:12.640Z,24.20
2022-11-01T02:10:31.965Z,22.08
2022-11-01T02:12:58.713Z,21.95
2022-11-01T02:15:40.321Z,21.20
2022-11-01T02:18:21.331Z,27.52
2022-11-01T02:21:04.388Z,22.33
2022-11-01T02:24:09.098Z,25.30
2022-11-01T02:26:51.018Z,25.05
2022-11-01T02:35:35.554Z,24.85
2022-11-01T02:38:46.301Z,25.40
2022-11-01T02:41:36.509Z,28.30
2022-11-01T02:47:01.660Z,26.98
2022-11-01T02:49:51.536Z,24.67
2022-11-01T02:52:24.627Z,22.85
2022-11-01T02:55:03.584Z,24.02
2022-11-01T02:57:42.392Z,25.52
2022-11-01T03:03:25.843Z,29.15
2022-11-01T03:09:00.735Z,22.85
2022-11-01T03:12:04.730Z,26.50
2022-11-01T03:14:37.671Z,21.23
2022-11-01T03:17:20.718Z,23.08
2022-11-01T03:19:59.348Z,28.00
2022-11-01T03:25:58.887Z,25.60
2022-11-01T03:28:37.973Z,27.58
2022-11-01T03:31:19.303Z,29.13
2022-11-01T03:36:48.170Z,36.60
2022-11-01T03:39:39.081Z,30.23
2022-11-01T03:42:09.463Z,26.35
2022-11-01T03:44:51.514Z,25.05
2022-11-01T03:47:18.811Z,27.80
2022-11-01T03:49:45.609Z,28.67
2022-11-01T03:52:12.741Z,27.27
2022-11-01T03:54:39.497Z,32.20
2022-11-01T03:57:06.326Z,26.38
2022-11-01T03:59:38.722Z,27.92
2022-11-01T04:02:05.714Z,31.50
2022-11-01T04:04:32.625Z,27.80
2022-11-01T04:06:59.479Z,38.40
2022-11-01T04:09:26.352Z,34.97
2022-11-01T04:11:53.086Z,32.38
2022-11-01T04:14:38.711Z,33.88
2022-11-01T04:17:24.664Z,36.90
2022-11-01T04:20:09.954Z,37.42
2022-11-01T04:22:37.633Z,29.65
2022-11-01T04:25:04.617Z,35.33
2022-11-01T04:27:31.382Z,27.23
2022-11-01T04:29:58.167Z,34.85
2022-11-01T04:32:25.005Z,32.30
2022-11-01T04:37:42.519Z,34.50
2022-11-01T04:40:10.135Z,30.27
2022-11-01T04:42:37.837Z,32.78
2022-11-01T04:45:06.471Z,27.85
2022-11-01T04:47:34.935Z,34.42
2022-11-01T04:50:01.622Z,33.03
2022-11-01T04:52:34.465Z,26.15
2022-11-01T04:55:01.157Z,28.10
2022-11-01T04:57:27.951Z,28.90
2022-11-01T04:59:55.917Z,29.73
2022-11-01T05:02:28.779Z,30.48
2022-11-01T05:04:55.590Z,29.90
2022-11-01T05:07:28.210Z,35.92
2022-11-01T05:09:55.121Z,25.67
2022-11-01T05:12:29.358Z,27.95
2022-11-01T05:14:57.040Z,32.78
2022-11-01T05:17:24.297Z,30.08
2022-11-01T05:19:51.770Z,26.35
2022-11-01T05:22:21.732Z,28.33
2022-11-01T05:27:42.315Z,30.40
2022-11-01T05:30:09.866Z,27.58
2022-11-01T05:32:37.854Z,26.88
2022-11-01T05:35:06.155Z,25.45
2022-11-01T05:37:33.198Z,26.88
2022-11-01T05:40:00.070Z,33.03
2022-11-01T05:42:27.003Z,23.38
2022-11-01T05:44:59.995Z,25.90
2022-11-01T05:47:26.782Z,27.95
2022-11-01T05:49:53.576Z,33.88
2022-11-01T05:52:20.455Z,27.98
2022-11-01T05:54:52.319Z,28.05
2022-11-01T05:57:19.143Z,28.52
2022-11-01T05:59:49.024Z,24.45
2022-11-01T06:02:16.400Z,24.95
2022-11-01T06:04:48.990Z,25.60
2022-11-01T06:07:16.015Z,23.38
2022-11-01T06:09:42.754Z,23.92
2022-11-01T06:12:09.517Z,26.23
2022-11-01T06:14:36.273Z,21.88
2022-11-01T06:17:04.986Z,21.08
2022-11-01T06:19:35.298Z,24.00
2022-11-01T06:22:07.598Z,26.83
2022-11-01T06:27:34.969Z,22.45
2022-11-01T06:30:01.957Z,23.17
2022-11-01T06:32:28.736Z,26.80
2022-11-01T06:34:55.511Z,27.80
2022-11-01T06:37:25.952Z,26.38
2022-11-01T06:39:52.771Z,23.08
2022-11-01T06:42:19.441Z,19.10
2022-11-01T06:44:46.316Z,24.10
2022-11-01T06:47:13.168Z,24.23
2022-11-01T06:49:40.576Z,22.48
2022-11-01T06:54:59.465Z,22.30
2022-11-01T06:57:26.278Z,20.75
2022-11-01T06:59:53.057Z,23.58
2022-11-01T07:02:20.571Z,24.90
2022-11-01T07:04:48.591Z,25.20
2022-11-01T07:07:15.558Z,27.17
2022-11-01T07:09:42.306Z,26.83
2022-11-01T07:15:10.907Z,26.63
2022-11-01T07:17:37.726Z,23.60
2022-11-01T07:20:04.798Z,24.10
2022-11-01T07:22:31.449Z,28.77
2022-11-01T07:25:04.719Z,26.63
2022-11-01T07:27:31.563Z,24.98
2022-11-01T07:29:58.455Z,24.17
2022-11-01T07:35:16.670Z,22.85
2022-11-01T07:37:49.550Z,22.95
2022-11-01T07:40:17.261Z,19.83
2022-11-01T07:42:45.132Z,20.95
2022-11-01T07:48:07.095Z,13.10
2022-11-01T07:50:43.615Z,14.55
2022-11-01T07:55:49.988Z,17.30
2022-11-01T07:58:17.298Z,13.02
2022-11-01T08:00:44.812Z,15.93
2022-11-01T08:06:05.699Z,17.65
2022-11-01T08:08:32.420Z,23.73
2022-11-01T08:11:02.515Z,19.42
2022-11-01T08:13:29.910Z,18.98
2022-11-01T08:18:51.698Z,17.05
2022-11-01T08:24:12.332Z,9.80
2022-11-01T08:26:39.022Z,6.55
2022-11-01T08:29:06.004Z,8.80
2022-11-01T08:31:33.023Z,12.55
2022-11-01T08:34:10.878Z,7.75
2022-11-01T08:39:32.881Z,10.35
2022-11-01T08:42:05.666Z,7.72
2022-11-01T08:44:38.695Z,9.10
2022-11-01T08:47:08.390Z,7.07
2022-11-01T08:49:35.167Z,6.00
2022-11-01T08:52:01.947Z,8.10
2022-11-01T08:57:19.685Z,7.47
2022-11-01T08:59:55.678Z,5.15
2022-11-01T09:02:23.810Z,4.80
2022-11-01T09:04:50.784Z,8.23
2022-11-01T09:07:17.648Z,4.25
2022-11-01T09:09:44.409Z,7.28
2022-11-01T09:12:14.819Z,5.60
2022-11-01T09:14:48.527Z,3.40
2022-11-01T09:17:15.555Z,5.25
2022-11-01T09:19:42.344Z,2.33
2022-11-01T09:25:01.898Z,2.55
2022-11-01T09:27:28.735Z,11.00
2022-11-01T09:35:37.365Z,2.67
2022-11-01T09:38:05.080Z,3.97
2022-11-01T09:40:44.102Z,3.20
2022-11-01T09:43:21.436Z,4.00
2022-11-01T09:48:44.935Z,5.10
2022-11-01T09:51:23.308Z,2.55
2022-11-01T09:57:10.929Z,2.33
2022-11-01T09:59:47.810Z,2.85
2022-11-01T10:03:04.761Z,1.45
2022-11-01T10:06:00.024Z,1.38
2022-11-01T10:08:42.274Z,1.83
2022-11-01T10:11:23.170Z,3.50
2022-11-01T10:14:04.673Z,1.70
2022-11-01T10:16:38.280Z,4.22
2022-11-01T10:19:14.635Z,1.27
2022-11-01T10:24:52.169Z,1.42
2022-11-01T10:27:39.197Z,4.60
2022-11-01T10:30:20.639Z,1.42
2022-11-01T10:32:49.829Z,1.05
2022-11-01T10:35:29.317Z,2.78
2022-11-01T10:38:26.690Z,1.15
2022-11-01T10:44:07.001Z,1.50
2022-11-01T10:55:42.438Z,3.75
2022-11-01T10:58:19.786Z,3.08
2022-11-01T11:00:47.454Z,3.95
2022-11-01T11:03:21.592Z,3.17
2022-11-01T11:05:50.826Z,1.45
2022-11-01T11:08:20.806Z,2.05
2022-11-01T11:10:52.805Z,3.70
2022-11-01T11:13:28.566Z,5.03
2022-11-01T11:16:00.587Z,3.50
2022-11-01T11:18:39.624Z,2.80
2022-11-01T11:21:13.769Z,2.92
2022-11-01T11:23:44.117Z,1.67
2022-11-01T11:36:01.715Z,0.82
2022-11-01T11:41:39.070Z,1.77
2022-11-01T11:44:35.361Z,4.63
2022-11-01T11:47:05.729Z,1.80
2022-11-01T11:49:33.977Z,2.40
2022-11-01T11:52:00.919Z,4.07
2022-11-01T11:54:38.920Z,5.13
2022-11-01T11:57:11.503Z,2.50
2022-11-01T11:59:43.236Z,1.65
2022-11-01T12:02:27.037Z,2.05
2022-11-01T12:05:03.784Z,2.30
2022-11-01T12:10:41.045Z,1.98
2022-11-01T12:13:31.754Z,2.92
2022-11-01T12:16:20.832Z,3.33
2022-11-01T12:18:59.568Z,3.95
2022-11-01T12:21:37.675Z,2.50
2022-11-01T12:24:27.298Z,3.15
2022-11-01T12:27:03.630Z,1.80
2022-11-01T12:32:09.796Z,3.88
2022-11-01T12:34:42.542Z,2.28
2022-11-01T12:37:29.174Z,1.58
2022-11-01T12:40:02.631Z,2.92
2022-11-01T12:42:39.308Z,1.70
2022-11-01T12:45:15.687Z,3.40
2022-11-01T12:47:49.359Z,1.83
2022-11-01T12:50:19.237Z,4.07
2022-11-01T12:55:54.057Z,1.48
2022-11-01T12:58:35.319Z,3.00
2022-11-01T13:01:29.505Z,1.25
2022-11-01T13:04:31.311Z,3.53
2022-11-01T13:10:36.585Z,6.72
2022-11-01T13:13:33.050Z,2.67
2022-11-01T13:16:22.284Z,4.30
2022-11-01T13:19:07.840Z,3.35
2022-11-01T13:22:03.132Z,2.80
2022-11-01T13:24:50.288Z,2.25
2022-11-01T13:27:33.899Z,2.30
2022-11-01T13:33:40.393Z,1.70
2022-11-01T13:36:30.350Z,2.63
2022-11-01T13:39:26.615Z,1.77
2022-11-01T13:45:40.911Z,1.48
2022-11-01T13:48:19.822Z,3.50
2022-11-01T13:54:07.637Z,2.63
2022-11-01T13:56:40.782Z,8.13
2022-11-01T13:59:15.574Z,2.83
2022-11-01T14:01:43.153Z,2.47
2022-11-01T14:04:19.525Z,2.17
2022-11-01T14:07:16.443Z,3.78
2022-11-01T14:09:54.492Z,3.72
2022-11-01T14:19:05.612Z,3.55
2022-11-01T14:21:44.449Z,3.70
2022-11-01T14:27:39.068Z,4.28
2022-11-01T14:30:32.227Z,2.40
2022-11-01T14:33:01.095Z,7.15
2022-11-01T14:35:38.920Z,3.60
2022-11-01T14:38:15.481Z,3.00
2022-11-01T14:40:44.255Z,5.40
2022-11-01T14:43:36.018Z,2.15
2022-11-01T14:46:14.827Z,3.70
2022-11-01T14:48:52.511Z,4.78
2022-11-01T14:54:36.581Z,4.85
2022-11-01T14:57:20.106Z,4.53
2022-11-01T14:59:46.919Z,3.63
2022-11-01T15:02:13.802Z,2.20
2022-11-01T15:04:43.922Z,5.60
2022-11-01T15:07:27.658Z,2.65
2022-11-01T15:13:04.059Z,2.80
2022-11-01T15:18:13.417Z,4.47
2022-11-01T15:20:43.398Z,5.72
2022-11-01T15:26:09.442Z,4.65
2022-11-01T15:28:41.312Z,3.92
2022-11-01T15:31:10.030Z,6.15
2022-11-01T15:33:37.802Z,9.05
2022-11-01T15:36:20.293Z,7.90
2022-11-01T15:38:53.070Z,5.45
2022-11-01T15:41:31.941Z,5.40
2022-11-01T15:44:05.872Z,11.45
2022-11-01T15:52:08.066Z,5.70
2022-11-01T15:54:48.769Z,4.93
2022-11-01T15:57:33.394Z,5.72
2022-11-01T16:03:04.353Z,7.93
2022-11-01T16:05:38.374Z,7.15
2022-11-01T16:08:09.186Z,12.75
2022-11-01T16:10:36.201Z,16.70
2022-11-01T16:13:05.055Z,12.30
2022-11-01T16:18:28.386Z,16.88
2022-11-01T16:24:20.185Z,20.17
2022-11-01T16:27:00.182Z,20.00
2022-11-01T16:29:46.522Z,24.63
2022-11-01T16:32:30.877Z,12.93
2022-11-01T16:35:00.184Z,8.15
2022-11-01T16:37:32.783Z,8.68
2022-11-01T16:40:23.011Z,7.13
2022-11-01T16:42:49.882Z,6.53
2022-11-01T16:45:16.779Z,10.00
2022-11-01T16:47:43.714Z,9.85
2022-11-01T16:50:18.705Z,10.48
2022-11-01T16:52:45.453Z,8.20
2022-11-01T16:55:12.903Z,10.13
2022-11-01T16:57:40.787Z,15.70
2022-11-01T17:00:12.719Z,11.95
2022-11-01T17:02:40.597Z,10.65
2022-11-01T17:05:13.610Z,8.40
2022-11-01T17:07:40.584Z,9.50
2022-11-01T17:10:21.652Z,9.90
2022-11-01T17:12:48.606Z,10.73
2022-11-01T17:15:15.821Z,8.40
2022-11-01T17:20:36.609Z,8.70
2022-11-01T17:23:03.605Z,6.15
2022-11-01T17:25:31.203Z,6.80
2022-11-01T17:27:57.941Z,12.05
2022-11-01T17:30:24.924Z,7.03
2022-11-01T17:35:42.995Z,6.75
2022-11-01T17:38:19.486Z,5.50
2022-11-01T17:43:18.831Z,6.10
2022-11-01T17:45:47.341Z,9.43
2022-11-01T17:48:14.572Z,11.02
2022-11-01T17:50:42.264Z,8.13
2022-11-01T17:53:18.130Z,6.50
2022-11-01T17:55:45.808Z,8.15
2022-11-01T17:58:13.082Z,6.07
2022-11-01T18:03:32.593Z,8.07
2022-11-01T18:06:00.098Z,6.57
2022-11-01T18:08:30.891Z,8.93
2022-11-01T18:11:34.464Z,9.25
2022-11-01T18:14:15.809Z,6.32
2022-11-01T18:17:00.338Z,8.65
2022-11-01T18:19:53.602Z,9.23
2022-11-01T18:22:31.830Z,7.32
2022-11-01T18:25:26.092Z,9.18
2022-11-01T18:27:55.658Z,5.78
2022-11-01T18:30:22.946Z,6.97
2022-11-01T18:33:04.437Z,7.43
2022-11-01T18:35:43.360Z,7.35
2022-11-01T18:41:13.515Z,10.73
2022-11-01T18:43:40.460Z,5.10
2022-11-01T18:46:27.220Z,5.82
2022-11-01T18:51:31.273Z,7.57
2022-11-01T18:54:10.135Z,8.02
2022-11-01T18:56:38.567Z,7.60
2022-11-01T18:59:15.124Z,5.03
2022-11-01T19:01:43.680Z,11.05
2022-11-01T19:04:21.770Z,7.75
2022-11-01T19:06:49.219Z,8.25
2022-11-01T19:09:25.233Z,11.48
2022-11-01T19:12:01.932Z,6.93
2022-11-01T19:14:32.758Z,8.65
2022-11-01T19:16:59.595Z,6.65
2022-11-01T19:22:26.462Z,6.45
2022-11-01T19:24:53.651Z,9.18
2022-11-01T19:27:22.953Z,4.63
2022-11-01T19:32:44.813Z,9.68
2022-11-01T19:38:14.662Z,7.22
2022-11-01T19:40:43.936Z,10.68
2022-11-01T19:43:16.275Z,9.52
2022-11-01T19:46:02.007Z,6.78
2022-11-01T19:54:20.619Z,5.40
2022-11-01T19:56:47.534Z,8.98
2022-11-01T19:59:16.007Z,6.50
2022-11-01T20:01:46.649Z,11.93
2022-11-01T20:04:26.970Z,9.07
2022-11-01T20:09:58.276Z,6.88
2022-11-01T20:15:22.372Z,12.30
2022-11-01T20:17:49.552Z,4.95
2022-11-01T20:20:16.559Z,5.80
2022-11-01T20:25:37.495Z,7.45
2022-11-01T20:28:05.473Z,7.80
2022-11-01T20:30:34.257Z,7.40
2022-11-01T20:33:01.489Z,8.00
2022-11-01T20:35:28.715Z,5.45
2022-11-01T20:37:55.736Z,7.82
2022-11-01T20:40:25.216Z,11.35
2022-11-01T20:42:52.585Z,4.38
2022-11-01T20:45:19.630Z,8.57
2022-11-01T20:47:46.720Z,5.57
2022-11-01T20:50:15.764Z,8.88
2022-11-01T20:55:34.790Z,5.50
2022-11-01T20:58:08.543Z,6.80
2022-11-01T21:00:36.127Z,4.85
2022-11-01T21:03:15.168Z,3.85
2022-11-01T21:05:43.954Z,6.22
2022-11-01T21:08:10.872Z,7.00
2022-11-01T21:13:37.143Z,5.03
2022-11-01T21:16:14.062Z,6.75
2022-11-01T21:18:44.538Z,4.75
2022-11-01T21:21:19.371Z,6.75
2022-11-01T21:23:46.833Z,7.43
2022-11-01T21:26:20.871Z,12.75
2022-11-01T21:28:50.828Z,10.10
2022-11-01T21:31:31.331Z,6.43
2022-11-01T21:34:10.308Z,8.52
2022-11-01T21:37:05.193Z,7.68
2022-11-01T21:39:32.984Z,5.70
2022-11-01T21:42:36.291Z,7.97
2022-11-01T21:45:33.354Z,13.70
2022-11-01T21:48:15.385Z,7.72
2022-11-01T21:50:42.794Z,6.70
2022-11-01T21:53:09.684Z,7.07
2022-11-01T21:55:36.609Z,5.05
2022-11-01T21:58:03.460Z,9.85
2022-11-01T22:00:30.821Z,5.25
2022-11-01T22:05:48.738Z,6.53
2022-11-01T22:08:15.723Z,5.53
2022-11-01T22:10:42.669Z,6.43
2022-11-01T22:13:10.061Z,6.88
2022-11-01T22:15:36.912Z,7.18
2022-11-01T22:18:04.126Z,12.70
2022-11-01T22:20:30.991Z,5.68
2022-11-01T22:22:57.913Z,9.07
2022-11-01T22:25:25.591Z,4.43
2022-11-01T22:27:52.514Z,7.00
2022-11-01T22:30:19.559Z,8.77
2022-11-01T22:32:51.521Z,6.25
2022-11-01T22:35:18.382Z,6.25
2022-11-01T22:37:45.222Z,5.85
2022-11-01T22:40:13.001Z,3.90
2022-11-01T22:42:41.311Z,7.68
2022-11-01T22:45:18.554Z,10.10
2022-11-01T22:47:46.808Z,5.95
2022-11-01T22:50:20.927Z,7.75
2022-11-01T22:52:48.787Z,5.32
2022-11-01T22:58:35.024Z,10.45
2022-11-01T23:01:23.504Z,4.25
2022-11-01T23:03:57.272Z,3.58
2022-11-01T23:06:33.221Z,5.78
2022-11-01T23:09:13.590Z,6.07
2022-11-01T23:11:59.079Z,5.82
2022-11-01T23:14:37.188Z,10.52
2022-11-01T23:17:25.115Z,9.13
2022-11-01T23:19:56.150Z,5.95
2022-11-01T23:25:16.708Z,7.47
2022-11-01T23:27:50.368Z,5.22
2022-11-01T23:30:17.310Z,9.10
2022-11-01T23:32:44.673Z,4.25
2022-11-01T23:38:19.938Z,5.93
2022-11-01T23:40:47.288Z,6.22
2022-11-01T23:43:21.733Z,8.00
2022-11-01T23:45:49.391Z,6.53
2022-11-01T23:48:16.540Z,7.40
2022-11-01T23:50:43.579Z,9.23
2022-11-01T23:53:14.073Z,9.05
2022-11-01T23:55:54.552Z,5.57
